Terminal Aerodrome Forecast
Issued by NWS

Home | Current Version | Previous Version | Graphics & Text | Print | Product List | Glossary On
Versions: 1 2 3 4 5 6 7 8 9 10 11 12 13 14 15
000
FTUS43 KMPX 162334
TAFAXN
TAF
KAXN 162334Z 1700/1724 17006KT P6SM SCT200
     FM170600 22006KT P6SM SCT150
     FM172000 25006KT P6SM SCT150=

USA.gov is the U.S. government's official web portal to all federal, state and local government web resources and services.